createdAt,value
2018-12-08T00:00:04.022Z,988.08
2018-12-08T00:01:03.975Z,988.08
2018-12-08T00:02:03.958Z,988.08
2018-12-08T00:03:03.938Z,988.03
2018-12-08T00:04:03.950Z,988.07
2018-12-08T00:05:03.917Z,988.06
2018-12-08T00:06:03.932Z,988.01
2018-12-08T00:07:03.894Z,988.05
2018-12-08T00:08:03.890Z,988.03
2018-12-08T00:09:03.893Z,988.01
2018-12-08T00:10:03.869Z,988.07
2018-12-08T00:11:03.861Z,988.07
2018-12-08T00:12:03.896Z,988.01
2018-12-08T00:13:03.839Z,987.99
2018-12-08T00:14:03.844Z,988.01
2018-12-08T00:15:03.822Z,988.08
2018-12-08T00:16:03.802Z,987.98
2018-12-08T00:17:03.786Z,988.00
2018-12-08T00:18:03.828Z,987.97
2018-12-08T00:19:03.766Z,987.96
2018-12-08T00:20:03.764Z,987.95
2018-12-08T00:21:03.775Z,988.06
2018-12-08T00:22:03.729Z,988.08
2018-12-08T00:23:03.726Z,988.07
2018-12-08T00:24:03.746Z,988.21
2018-12-08T00:25:03.706Z,988.14
2018-12-08T00:26:03.720Z,988.19
2018-12-08T00:27:03.679Z,988.16
2018-12-08T00:28:03.674Z,988.31
2018-12-08T00:29:03.658Z,988.27
2018-12-08T00:30:03.699Z,988.20
2018-12-08T00:31:03.636Z,988.32
2018-12-08T00:32:03.629Z,988.26
2018-12-08T00:33:03.631Z,988.32
2018-12-08T00:34:03.609Z,988.30
2018-12-08T00:35:03.588Z,988.31
2018-12-08T00:36:03.622Z,988.36
2018-12-08T00:37:03.572Z,988.31
2018-12-08T00:38:03.557Z,988.40
2018-12-08T00:39:03.627Z,988.36
2018-12-08T00:40:03.545Z,988.46
2018-12-08T00:41:03.580Z,988.45
2018-12-08T00:42:03.567Z,988.43
2018-12-08T00:43:03.524Z,988.48
2018-12-08T00:44:03.495Z,988.45
2018-12-08T00:45:03.485Z,988.53
2018-12-08T00:46:03.573Z,988.53
2018-12-08T00:47:03.465Z,988.49
2018-12-08T00:48:03.499Z,988.51
2018-12-08T00:49:03.460Z,988.54
2018-12-08T00:50:03.430Z,988.48
2018-12-08T00:51:03.423Z,988.46
2018-12-08T00:52:03.417Z,988.48
2018-12-08T00:53:03.400Z,988.47
2018-12-08T00:54:03.423Z,988.53
2018-12-08T00:55:03.370Z,988.55
2018-12-08T00:56:03.368Z,988.55
2018-12-08T00:57:03.362Z,988.63
2018-12-08T00:58:03.353Z,988.59
2018-12-08T00:59:03.334Z,988.62
2018-12-08T01:00:03.359Z,988.57
2018-12-08T01:01:03.309Z,988.67
2018-12-08T01:02:03.303Z,988.54
2018-12-08T01:03:03.290Z,988.52
2018-12-08T01:04:03.273Z,988.54
2018-12-08T01:05:03.277Z,988.50
2018-12-08T01:06:03.287Z,988.48
2018-12-08T01:07:03.253Z,988.48
2018-12-08T01:08:03.232Z,988.44
2018-12-08T01:09:03.222Z,988.50
2018-12-08T01:10:03.211Z,988.51
2018-12-08T01:11:03.199Z,988.53
2018-12-08T01:12:03.241Z,988.53
2018-12-08T01:13:03.192Z,988.54
2018-12-08T01:14:03.180Z,988.67
2018-12-08T01:15:03.162Z,988.52
2018-12-08T01:16:03.145Z,988.52
2018-12-08T01:17:03.148Z,988.63
2018-12-08T01:18:03.159Z,988.62
2018-12-08T01:19:03.115Z,988.67
2018-12-08T01:20:03.099Z,988.67
2018-12-08T01:21:03.096Z,988.63
2018-12-08T01:22:03.099Z,988.78
2018-12-08T01:23:03.083Z,988.70
2018-12-08T01:24:03.098Z,988.68
2018-12-08T01:25:03.048Z,988.77
2018-12-08T01:26:03.049Z,988.73
2018-12-08T01:27:03.033Z,988.79
2018-12-08T01:28:03.016Z,988.78
2018-12-08T01:29:03.009Z,988.73
2018-12-08T01:30:03.027Z,988.81
2018-12-08T01:31:02.989Z,988.68
2018-12-08T01:32:02.991Z,988.84
2018-12-08T01:33:02.961Z,988.78
2018-12-08T01:34:02.951Z,988.79
2018-12-08T01:35:02.944Z,988.86
2018-12-08T01:36:02.965Z,988.95
2018-12-08T01:37:02.930Z,988.91
2018-12-08T01:38:02.917Z,988.90
2018-12-08T01:39:02.903Z,988.80
2018-12-08T01:40:02.900Z,988.84
2018-12-08T01:41:02.879Z,988.81
2018-12-08T01:42:02.902Z,988.73
2018-12-08T01:43:02.863Z,988.79
2018-12-08T01:44:02.846Z,988.72
2018-12-08T01:45:02.839Z,988.85
2018-12-08T01:46:02.843Z,988.85
2018-12-08T01:47:02.889Z,988.72
2018-12-08T01:48:02.845Z,988.76
2018-12-08T01:49:02.790Z,988.68
2018-12-08T01:50:02.776Z,988.77
2018-12-08T01:51:02.773Z,988.71
2018-12-08T01:52:02.778Z,988.82
2018-12-08T01:53:02.747Z,988.68
2018-12-08T01:54:02.763Z,988.64
2018-12-08T01:55:02.769Z,988.96
2018-12-08T01:56:02.724Z,988.76
2018-12-08T01:57:02.714Z,988.71
2018-12-08T01:58:02.691Z,988.76
2018-12-08T01:59:02.679Z,988.63
2018-12-08T02:00:02.723Z,988.58
2018-12-08T02:01:02.662Z,988.52
2018-12-08T02:02:02.646Z,988.58
2018-12-08T02:03:02.634Z,988.62
2018-12-08T02:04:02.628Z,988.56
2018-12-08T02:05:02.623Z,988.59
2018-12-08T02:06:02.645Z,988.65
2018-12-08T02:07:02.611Z,988.52
2018-12-08T02:08:02.599Z,988.51
2018-12-08T02:09:02.577Z,988.50
2018-12-08T02:10:02.562Z,988.51
2018-12-08T02:11:02.551Z,988.44
2018-12-08T02:12:02.571Z,988.51
2018-12-08T02:13:02.529Z,988.54
2018-12-08T02:14:02.520Z,988.54
2018-12-08T02:15:02.517Z,988.57
2018-12-08T02:16:02.514Z,988.45
2018-12-08T02:17:02.485Z,988.49
2018-12-08T02:18:02.577Z,988.33
2018-12-08T02:19:02.466Z,988.40
2018-12-08T02:20:02.456Z,988.51
2018-12-08T02:21:02.440Z,988.49
2018-12-08T02:22:02.442Z,988.49
2018-12-08T02:23:02.422Z,988.43
2018-12-08T02:24:02.439Z,988.48
2018-12-08T02:25:02.407Z,988.41
2018-12-08T02:26:02.388Z,988.51
2018-12-08T02:27:02.375Z,988.53
2018-12-08T02:28:02.364Z,988.53
2018-12-08T02:29:02.368Z,988.50
2018-12-08T02:30:02.390Z,988.51
2018-12-08T02:31:02.334Z,988.50
2018-12-08T02:32:02.320Z,988.48
2018-12-08T02:33:02.318Z,988.47
2018-12-08T02:34:02.313Z,988.53
2018-12-08T02:35:02.304Z,988.50
2018-12-08T02:36:02.330Z,988.51
2018-12-08T02:37:02.269Z,988.49
2018-12-08T02:38:02.260Z,988.47
2018-12-08T02:39:02.249Z,988.53
2018-12-08T02:40:02.239Z,988.49
2018-12-08T02:41:02.244Z,988.51
2018-12-08T02:42:02.255Z,988.50
2018-12-08T02:43:02.209Z,988.49
2018-12-08T02:44:02.193Z,988.53
2018-12-08T02:45:02.195Z,988.43
2018-12-08T02:46:02.180Z,988.52
2018-12-08T02:47:02.163Z,988.50
2018-12-08T02:48:02.189Z,988.48
2018-12-08T02:49:02.132Z,988.59
2018-12-08T02:50:02.128Z,988.56
2018-12-08T02:51:02.115Z,988.55
2018-12-08T02:52:02.112Z,988.53
2018-12-08T02:53:02.090Z,988.48
2018-12-08T02:54:02.120Z,988.49
2018-12-08T02:55:02.074Z,988.49
2018-12-08T02:56:02.062Z,988.52
2018-12-08T02:57:02.054Z,988.46
2018-12-08T02:58:02.048Z,988.42
2018-12-08T02:59:02.028Z,988.44
2018-12-08T03:00:02.086Z,988.40
2018-12-08T03:01:02.008Z,988.42
2018-12-08T03:02:02.001Z,988.41
2018-12-08T03:03:02.004Z,988.39
2018-12-08T03:04:01.974Z,988.39
2018-12-08T03:05:01.973Z,988.44
2018-12-08T03:06:01.991Z,988.45
2018-12-08T03:07:01.940Z,988.42
2018-12-08T03:08:01.940Z,988.36
2018-12-08T03:09:01.921Z,988.38
2018-12-08T03:10:02.061Z,988.29
2018-12-08T03:11:01.896Z,988.29
2018-12-08T03:12:01.916Z,988.28
2018-12-08T03:13:01.879Z,988.25
2018-12-08T03:14:01.867Z,988.21
2018-12-08T03:15:01.863Z,988.27
2018-12-08T03:16:01.844Z,988.24
2018-12-08T03:17:01.879Z,988.26
2018-12-08T03:18:01.859Z,988.24
2018-12-08T03:19:01.827Z,988.23
2018-12-08T03:20:01.807Z,988.16
2018-12-08T03:21:01.794Z,988.19
2018-12-08T03:22:01.782Z,988.18
2018-12-08T03:23:01.770Z,988.22
2018-12-08T03:24:01.810Z,988.14
2018-12-08T03:25:01.754Z,988.16
2018-12-08T03:26:01.740Z,988.11
2018-12-08T03:27:01.735Z,988.04
2018-12-08T03:28:01.720Z,987.95
2018-12-08T03:29:01.717Z,987.98
2018-12-08T03:30:01.718Z,987.97
2018-12-08T03:31:01.692Z,987.98
2018-12-08T03:32:01.672Z,987.99
2018-12-08T03:33:01.656Z,988.03
2018-12-08T03:34:01.650Z,987.99
2018-12-08T03:35:01.678Z,987.99
2018-12-08T03:36:01.673Z,987.93
2018-12-08T03:37:01.622Z,988.01
2018-12-08T03:38:01.616Z,987.88
2018-12-08T03:39:01.604Z,987.95
2018-12-08T03:40:01.597Z,987.95
2018-12-08T03:41:01.577Z,988.04
2018-12-08T03:42:01.599Z,988.00
2018-12-08T03:43:01.569Z,988.02
2018-12-08T03:44:01.546Z,988.07
2018-12-08T03:45:01.529Z,988.03
2018-12-08T03:46:01.529Z,987.95
2018-12-08T03:47:01.505Z,987.97
2018-12-08T03:48:01.526Z,988.04
2018-12-08T03:49:01.491Z,987.93
2018-12-08T03:50:01.480Z,988.06
2018-12-08T03:51:01.473Z,988.03
2018-12-08T03:52:01.471Z,988.02
2018-12-08T03:53:01.443Z,987.99
2018-12-08T03:54:01.464Z,987.94
2018-12-08T03:55:01.433Z,987.94
2018-12-08T03:56:01.411Z,987.95
2018-12-08T03:57:01.401Z,988.01
2018-12-08T03:58:01.410Z,988.02
2018-12-08T03:59:01.380Z,988.04
2018-12-08T04:00:01.403Z,987.95
2018-12-08T04:01:01.358Z,988.03
2018-12-08T04:02:01.348Z,987.90
2018-12-08T04:03:01.333Z,988.03
2018-12-08T04:04:01.350Z,987.96
2018-12-08T04:05:01.317Z,987.99
2018-12-08T04:06:01.352Z,987.98
2018-12-08T04:07:01.291Z,988.03
2018-12-08T04:08:01.284Z,987.95
2018-12-08T04:09:01.269Z,987.95
2018-12-08T04:10:01.267Z,987.87
2018-12-08T04:11:01.249Z,988.11
2018-12-08T04:12:01.275Z,987.87
2018-12-08T04:13:01.229Z,987.82
2018-12-08T04:14:01.219Z,987.78
2018-12-08T04:15:01.236Z,987.78
2018-12-08T04:16:01.218Z,987.78
2018-12-08T04:17:01.179Z,987.76
2018-12-08T04:18:01.202Z,987.82
2018-12-08T04:19:01.180Z,987.85
2018-12-08T04:20:01.154Z,987.78
2018-12-08T04:21:01.138Z,987.78
2018-12-08T04:22:01.131Z,987.80
2018-12-08T04:23:01.119Z,987.84
2018-12-08T04:24:01.150Z,987.77
2018-12-08T04:25:01.102Z,987.75
2018-12-08T04:26:01.085Z,987.79
2018-12-08T04:27:01.075Z,987.76
2018-12-08T04:28:01.064Z,987.78
2018-12-08T04:29:01.063Z,987.77
2018-12-08T04:30:01.074Z,987.84
2018-12-08T04:31:01.039Z,987.76
2018-12-08T04:32:01.022Z,987.68
2018-12-08T04:33:01.016Z,987.80
2018-12-08T04:34:01.011Z,987.80
2018-12-08T04:35:00.987Z,987.78
2018-12-08T04:36:01.022Z,987.73
2018-12-08T04:37:00.971Z,987.63
2018-12-08T04:38:00.962Z,987.64
2018-12-08T04:39:00.944Z,987.70
2018-12-08T04:40:00.938Z,987.67
2018-12-08T04:41:00.925Z,987.73
2018-12-08T04:42:00.940Z,987.67
2018-12-08T04:43:00.900Z,987.75
2018-12-08T04:44:00.888Z,987.71
2018-12-08T04:45:00.899Z,987.77
2018-12-08T04:46:00.872Z,987.72
2018-12-08T04:47:00.863Z,987.82
2018-12-08T04:48:00.879Z,987.81
2018-12-08T04:49:00.842Z,987.85
2018-12-08T04:50:00.820Z,987.77
2018-12-08T04:51:00.836Z,987.68
2018-12-08T04:52:00.811Z,987.73
2018-12-08T04:53:00.827Z,987.75
2018-12-08T04:54:00.822Z,987.78
2018-12-08T04:55:00.770Z,987.79
2018-12-08T04:56:00.781Z,987.80
2018-12-08T04:57:00.767Z,987.83
2018-12-08T04:58:00.744Z,987.82
2018-12-08T04:59:00.731Z,987.76
2018-12-08T05:00:00.755Z,987.80
2018-12-08T05:01:00.710Z,987.71
2018-12-08T05:02:00.703Z,987.76
2018-12-08T05:03:00.689Z,987.73
2018-12-08T05:04:00.677Z,987.78
2018-12-08T05:05:00.666Z,987.71
2018-12-08T05:06:00.684Z,987.75
2018-12-08T05:07:00.641Z,987.70
2018-12-08T05:08:00.653Z,987.73
2018-12-08T05:09:00.620Z,987.70
2018-12-08T05:10:00.605Z,987.62
2018-12-08T05:11:00.598Z,987.65
2018-12-08T05:12:00.628Z,987.57
2018-12-08T05:13:00.581Z,987.49
2018-12-08T05:14:00.570Z,987.48
2018-12-08T05:15:00.581Z,987.44
2018-12-08T05:16:00.541Z,987.55
2018-12-08T05:17:00.530Z,987.51
2018-12-08T05:18:00.545Z,987.38
2018-12-08T05:19:00.513Z,987.44
2018-12-08T05:20:00.500Z,987.53
2018-12-08T05:21:00.496Z,987.58
2018-12-08T05:22:00.506Z,987.53
2018-12-08T05:23:00.473Z,987.49
2018-12-08T05:24:00.489Z,987.55
2018-12-08T05:25:00.454Z,987.53
2018-12-08T05:26:00.450Z,987.47
2018-12-08T05:27:00.431Z,987.51
2018-12-08T05:28:00.438Z,987.47
2018-12-08T05:29:00.408Z,987.37
2018-12-08T05:30:00.436Z,987.38
2018-12-08T05:31:00.379Z,987.33
2018-12-08T05:32:00.383Z,987.29
2018-12-08T05:33:00.358Z,987.26
2018-12-08T05:34:00.349Z,987.25
2018-12-08T05:35:00.361Z,987.27
2018-12-08T05:36:00.358Z,987.25
2018-12-08T05:37:00.320Z,987.17
2018-12-08T05:38:00.311Z,987.18
2018-12-08T05:39:00.317Z,987.25
2018-12-08T05:40:00.301Z,987.20
2018-12-08T05:41:00.281Z,987.22
2018-12-08T05:42:00.318Z,987.21
2018-12-08T05:43:00.258Z,987.19
2018-12-08T05:44:00.242Z,987.32
2018-12-08T05:45:00.239Z,987.30
2018-12-08T05:46:00.224Z,987.27
2018-12-08T05:47:00.211Z,987.26
2018-12-08T05:48:00.240Z,987.36
2018-12-08T05:49:00.189Z,987.46
2018-12-08T05:50:00.180Z,987.56
2018-12-08T05:51:00.183Z,987.36
2018-12-08T05:52:00.156Z,987.44
2018-12-08T05:53:00.160Z,987.50
2018-12-08T05:54:00.174Z,987.51
2018-12-08T05:55:00.124Z,987.49
2018-12-08T05:56:00.124Z,987.57
2018-12-08T05:57:00.106Z,987.60
2018-12-08T05:58:00.099Z,987.60
2018-12-08T05:59:00.082Z,987.55
2018-12-08T06:00:00.117Z,987.57
2018-12-08T06:01:00.063Z,987.54
2018-12-08T06:02:00.049Z,987.58
2018-12-08T06:03:00.064Z,987.57
2018-12-08T06:04:00.046Z,987.56
2018-12-08T06:05:00.016Z,987.55
2018-12-08T06:06:00.082Z,987.65
2018-12-08T06:07:00.000Z,987.68
2018-12-08T06:08:00.017Z,987.66
2018-12-08T06:08:59.972Z,987.62
2018-12-08T06:09:59.987Z,987.64
2018-12-08T06:10:59.948Z,987.62
2018-12-08T06:11:59.984Z,987.64
2018-12-08T06:12:59.935Z,987.56
2018-12-08T06:13:59.962Z,987.66
2018-12-08T06:14:59.928Z,987.63
2018-12-08T06:15:59.902Z,987.63
2018-12-08T06:16:59.900Z,987.67
2018-12-08T06:17:59.915Z,987.67
2018-12-08T06:18:59.883Z,987.67
2018-12-08T06:19:59.855Z,987.66
2018-12-08T06:20:59.864Z,987.57
2018-12-08T06:21:59.831Z,987.56
2018-12-08T06:22:59.832Z,987.58
2018-12-08T06:23:59.854Z,987.58
2018-12-08T06:24:59.810Z,987.60
2018-12-08T06:25:59.823Z,987.59
2018-12-08T06:26:59.780Z,987.55
2018-12-08T06:27:59.769Z,987.49
2018-12-08T06:28:59.764Z,987.49
2018-12-08T06:29:59.817Z,987.55
2018-12-08T06:30:59.783Z,987.46
2018-12-08T06:31:59.721Z,987.44
2018-12-08T06:32:59.744Z,987.43
2018-12-08T06:33:59.701Z,987.33
2018-12-08T06:34:59.694Z,987.40
2018-12-08T06:35:59.720Z,987.41
2018-12-08T06:36:59.681Z,987.43
2018-12-08T06:37:59.668Z,987.46
2018-12-08T06:38:59.648Z,987.47
2018-12-08T06:39:59.637Z,987.40
2018-12-08T06:40:59.630Z,987.41
2018-12-08T06:41:59.648Z,987.31
2018-12-08T06:42:59.610Z,987.41
2018-12-08T06:43:59.589Z,987.34
2018-12-08T06:44:59.583Z,987.37
2018-12-08T06:45:59.582Z,987.38
2018-12-08T06:46:59.564Z,987.35
2018-12-08T06:47:59.595Z,987.45
2018-12-08T06:48:59.559Z,987.43
2018-12-08T06:49:59.532Z,987.41
2018-12-08T06:50:59.526Z,987.42
2018-12-08T06:51:59.518Z,987.42
2018-12-08T06:53:00.932Z,987.44
2018-12-08T06:53:59.530Z,987.53
2018-12-08T06:54:59.488Z,987.55
2018-12-08T06:55:59.470Z,987.62
2018-12-08T06:56:59.464Z,987.66
2018-12-08T06:57:59.454Z,987.65
2018-12-08T06:58:59.450Z,987.64
2018-12-08T06:59:59.487Z,987.53
2018-12-08T07:00:59.427Z,987.49
2018-12-08T07:01:59.413Z,987.51
2018-12-08T07:02:59.396Z,987.47
2018-12-08T07:03:59.410Z,987.51
2018-12-08T07:04:59.374Z,987.48
2018-12-08T07:05:59.416Z,987.49
2018-12-08T07:06:59.352Z,987.50
2018-12-08T07:07:59.335Z,987.45
2018-12-08T07:08:59.336Z,987.53
2018-12-08T07:09:59.326Z,987.56
2018-12-08T07:10:59.304Z,987.46
2018-12-08T07:11:59.336Z,987.51
2018-12-08T07:12:59.283Z,987.50
2018-12-08T07:13:59.283Z,987.54
2018-12-08T07:14:59.277Z,987.56
2018-12-08T07:15:59.247Z,987.42
2018-12-08T07:16:59.248Z,987.44
2018-12-08T07:17:59.272Z,987.47
2018-12-08T07:18:59.233Z,987.45
2018-12-08T07:19:59.215Z,987.44
2018-12-08T07:20:59.207Z,987.29
2018-12-08T07:21:59.188Z,987.26
2018-12-08T07:22:59.263Z,987.32
2018-12-08T07:23:59.192Z,987.29
2018-12-08T07:24:59.149Z,987.27
2018-12-08T07:25:59.171Z,987.28
2018-12-08T07:26:59.149Z,987.30
2018-12-08T07:27:59.118Z,987.33
2018-12-08T07:28:59.114Z,987.28
2018-12-08T07:29:59.177Z,987.25
2018-12-08T07:30:59.086Z,987.20
2018-12-08T07:31:59.079Z,987.17
2018-12-08T07:32:59.076Z,987.05
2018-12-08T07:33:59.107Z,987.05
2018-12-08T07:34:59.055Z,986.97
2018-12-08T07:35:59.083Z,986.99
2018-12-08T07:36:59.029Z,987.00
2018-12-08T07:37:59.011Z,986.98
2018-12-08T07:38:58.997Z,987.00
2018-12-08T07:39:58.988Z,986.89
2018-12-08T07:40:58.980Z,986.90
2018-12-08T07:41:59.017Z,986.94
2018-12-08T07:42:58.953Z,987.00
2018-12-08T07:43:58.946Z,986.98
2018-12-08T07:44:58.966Z,986.92
2018-12-08T07:45:58.930Z,987.00
2018-12-08T07:46:58.916Z,986.95
2018-12-08T07:47:58.943Z,987.02
2018-12-08T07:48:58.900Z,987.11
2018-12-08T07:49:58.970Z,987.04
2018-12-08T07:50:58.920Z,987.03
2018-12-08T07:51:58.921Z,987.06
2018-12-08T07:52:58.897Z,987.15
2018-12-08T07:53:58.861Z,987.09
2018-12-08T07:54:58.824Z,987.00
2018-12-08T07:55:58.881Z,986.95
2018-12-08T07:56:58.808Z,986.92
2018-12-08T07:57:58.815Z,986.95
2018-12-08T07:58:58.783Z,986.81
2018-12-08T07:59:58.804Z,986.81
2018-12-08T08:00:58.770Z,986.74
2018-12-08T08:01:58.756Z,986.75
2018-12-08T08:02:58.736Z,986.76
2018-12-08T08:03:58.728Z,986.77
2018-12-08T08:04:58.720Z,986.80
2018-12-08T08:05:58.805Z,986.87
2018-12-08T08:06:58.709Z,986.77
2018-12-08T08:07:58.705Z,986.77
2018-12-08T08:08:58.672Z,986.80
2018-12-08T08:09:58.665Z,986.77
2018-12-08T08:10:58.657Z,986.80
2018-12-08T08:11:58.706Z,986.81
2018-12-08T08:12:58.653Z,986.83
2018-12-08T08:13:58.639Z,986.74
2018-12-08T08:14:58.610Z,986.78
2018-12-08T08:15:58.600Z,986.78
2018-12-08T08:16:59.610Z,986.79
2018-12-08T08:17:58.613Z,986.80
2018-12-08T08:18:58.617Z,986.69
2018-12-08T08:19:58.567Z,986.75
2018-12-08T08:20:58.556Z,986.82
2018-12-08T08:21:58.574Z,986.78
2018-12-08T08:22:58.526Z,986.75
2018-12-08T08:23:58.626Z,986.76
2018-12-08T08:24:58.508Z,986.81
2018-12-08T08:25:58.504Z,986.80
2018-12-08T08:26:58.496Z,986.74
2018-12-08T08:27:58.488Z,986.83
2018-12-08T08:28:58.460Z,986.83
2018-12-08T08:29:58.479Z,986.78
2018-12-08T08:30:58.451Z,986.79
2018-12-08T08:31:58.432Z,986.71
2018-12-08T08:32:58.418Z,986.69
2018-12-08T08:33:58.406Z,986.71
2018-12-08T08:34:58.397Z,986.84
2018-12-08T08:35:58.428Z,986.86
2018-12-08T08:36:58.370Z,986.87
2018-12-08T08:37:58.370Z,986.90
2018-12-08T08:38:58.373Z,986.99
2018-12-08T08:39:58.355Z,987.00
2018-12-08T08:40:58.352Z,986.88
2018-12-08T08:41:58.370Z,986.89
2018-12-08T08:42:58.309Z,986.82
2018-12-08T08:43:58.305Z,986.85
2018-12-08T08:44:58.301Z,986.79
2018-12-08T08:45:58.284Z,986.78
2018-12-08T08:46:58.264Z,986.79
2018-12-08T08:47:58.480Z,986.81
2018-12-08T08:48:58.271Z,986.82
2018-12-08T08:49:58.280Z,986.86
2018-12-08T08:50:58.221Z,986.90
2018-12-08T08:51:58.215Z,986.85
2018-12-08T08:52:58.208Z,986.94
2018-12-08T08:53:58.220Z,986.85
2018-12-08T08:54:58.252Z,986.95
2018-12-08T08:55:58.168Z,986.95
2018-12-08T08:56:58.160Z,986.93
2018-12-08T08:57:58.172Z,987.04
2018-12-08T08:58:58.134Z,987.09
2018-12-08T08:59:58.153Z,987.06
2018-12-08T09:00:58.151Z,987.01
2018-12-08T09:01:58.124Z,987.00
2018-12-08T09:02:58.093Z,986.91
2018-12-08T09:03:58.099Z,986.95
2018-12-08T09:04:58.068Z,987.03
2018-12-08T09:05:58.108Z,987.08
2018-12-08T09:06:58.323Z,987.00
2018-12-08T09:07:58.162Z,987.06
2018-12-08T09:08:58.034Z,987.00
2018-12-08T09:09:58.030Z,986.94
2018-12-08T09:10:58.009Z,986.99
2018-12-08T09:11:58.094Z,986.95
2018-12-08T09:12:57.994Z,986.87
2018-12-08T09:13:57.971Z,986.91
2018-12-08T09:14:57.970Z,986.88
2018-12-08T09:15:57.954Z,986.89
2018-12-08T09:16:57.938Z,986.89
2018-12-08T09:17:57.987Z,986.85
2018-12-08T09:18:57.921Z,986.87
2018-12-08T09:19:57.918Z,986.91
2018-12-08T09:20:57.986Z,986.96
2018-12-08T09:21:57.906Z,986.95
2018-12-08T09:22:58.130Z,986.89
2018-12-08T09:23:57.892Z,986.91
2018-12-08T09:24:57.849Z,986.85
2018-12-08T09:25:57.854Z,986.87
2018-12-08T09:26:57.849Z,986.76
2018-12-08T09:27:57.834Z,986.85
2018-12-08T09:28:57.845Z,986.81
2018-12-08T09:29:57.884Z,986.83
2018-12-08T09:30:57.828Z,986.81
2018-12-08T09:31:57.829Z,986.78
2018-12-08T09:32:57.783Z,986.67
2018-12-08T09:33:57.757Z,986.66
2018-12-08T09:34:57.746Z,986.68
2018-12-08T09:35:57.814Z,986.76
2018-12-08T09:36:57.750Z,986.77
2018-12-08T09:37:57.716Z,986.74
2018-12-08T09:38:57.732Z,986.74
2018-12-08T09:39:57.691Z,986.73
2018-12-08T09:40:57.712Z,986.82
2018-12-08T09:41:57.713Z,986.78
2018-12-08T09:42:57.655Z,986.73
2018-12-08T09:43:57.672Z,986.68
2018-12-08T09:44:57.649Z,986.68
2018-12-08T09:45:57.628Z,986.67
2018-12-08T09:46:57.625Z,986.64
2018-12-08T09:47:57.637Z,986.55
2018-12-08T09:48:57.593Z,986.58
2018-12-08T09:49:57.590Z,986.60
2018-12-08T09:50:57.567Z,986.63
2018-12-08T09:51:57.560Z,986.66
2018-12-08T09:52:57.564Z,986.62
2018-12-08T09:53:57.576Z,986.58
2018-12-08T09:54:57.531Z,986.64
2018-12-08T09:55:57.525Z,986.59
2018-12-08T09:56:57.516Z,986.53
2018-12-08T09:57:57.507Z,986.60
2018-12-08T09:58:57.532Z,986.58
2018-12-08T09:59:57.517Z,986.54
2018-12-08T10:00:57.466Z,986.52
2018-12-08T10:01:57.528Z,986.53
2018-12-08T10:02:57.453Z,986.53
2018-12-08T10:03:57.436Z,986.56
2018-12-08T10:04:57.432Z,986.52
2018-12-08T10:05:57.440Z,986.61
2018-12-08T10:06:57.403Z,986.56
2018-12-08T10:07:57.403Z,986.61
2018-12-08T10:08:57.408Z,986.65
2018-12-08T10:09:57.396Z,986.57
2018-12-08T10:10:57.364Z,986.58
2018-12-08T10:11:57.378Z,986.57
2018-12-08T10:12:57.338Z,986.58
2018-12-08T10:13:57.334Z,986.60
2018-12-08T10:14:57.310Z,986.55
2018-12-08T10:15:57.297Z,986.55
2018-12-08T10:16:57.299Z,986.56
2018-12-08T10:17:57.325Z,986.46
2018-12-08T10:18:57.378Z,986.52
2018-12-08T10:19:57.275Z,986.51
2018-12-08T10:20:57.246Z,986.52
2018-12-08T10:21:57.235Z,986.65
2018-12-08T10:22:57.225Z,986.53
2018-12-08T10:23:57.261Z,986.57
2018-12-08T10:24:57.202Z,986.54
2018-12-08T10:25:57.199Z,986.46
2018-12-08T10:26:57.178Z,986.67
2018-12-08T10:27:57.207Z,986.54
2018-12-08T10:28:57.308Z,986.56
2018-12-08T10:29:57.182Z,986.60
2018-12-08T10:30:57.138Z,986.58
2018-12-08T10:31:57.139Z,986.48
2018-12-08T10:32:57.147Z,986.38
2018-12-08T10:33:57.108Z,986.44
2018-12-08T10:34:57.090Z,986.51
2018-12-08T10:35:57.112Z,986.55
2018-12-08T10:36:57.254Z,986.52
2018-12-08T10:37:57.057Z,986.47
2018-12-08T10:38:57.104Z,986.51
2018-12-08T10:39:57.052Z,986.46
2018-12-08T10:40:57.030Z,986.48
2018-12-08T10:41:57.071Z,986.55
2018-12-08T10:42:57.026Z,986.56
2018-12-08T10:43:57.004Z,986.42
2018-12-08T10:44:56.988Z,986.58
2018-12-08T10:45:57.011Z,986.46
2018-12-08T10:46:56.987Z,986.32
2018-12-08T10:47:56.989Z,986.40
2018-12-08T10:48:56.945Z,986.46
2018-12-08T10:49:56.931Z,986.53
2018-12-08T10:50:56.926Z,986.42
2018-12-08T10:51:56.932Z,986.45
2018-12-08T10:52:56.904Z,986.46
2018-12-08T10:53:56.927Z,986.53
2018-12-08T10:54:56.878Z,986.46
2018-12-08T10:55:56.872Z,986.44
2018-12-08T10:56:56.859Z,986.41
2018-12-08T10:57:56.863Z,986.50
2018-12-08T10:58:56.831Z,986.30
2018-12-08T10:59:56.868Z,986.36
2018-12-08T11:00:56.817Z,986.28
2018-12-08T11:01:56.798Z,986.22
2018-12-08T11:02:56.793Z,986.29
2018-12-08T11:03:56.783Z,986.22
2018-12-08T11:04:56.761Z,986.29
2018-12-08T11:05:56.782Z,986.37
2018-12-08T11:06:56.754Z,986.37
2018-12-08T11:07:56.728Z,986.66
2018-12-08T11:08:56.730Z,986.47
2018-12-08T11:09:56.703Z,986.55
2018-12-08T11:10:56.699Z,986.56
2018-12-08T11:11:56.725Z,986.43
2018-12-08T11:12:56.686Z,986.49
2018-12-08T11:13:56.703Z,986.62
2018-12-08T11:15:00.595Z,986.56
2018-12-08T11:15:56.642Z,986.62
2018-12-08T11:16:56.641Z,986.51
2018-12-08T11:17:56.673Z,986.61
2018-12-08T11:18:56.609Z,986.63
2018-12-08T11:19:56.622Z,986.57
2018-12-08T11:20:56.589Z,986.67
2018-12-08T11:21:56.578Z,986.52
2018-12-08T11:22:56.565Z,986.59
2018-12-08T11:23:56.633Z,986.72
2018-12-08T11:24:56.562Z,986.60
2018-12-08T11:25:56.540Z,986.58
2018-12-08T11:26:56.522Z,986.57
2018-12-08T11:27:56.518Z,986.62
2018-12-08T11:28:56.500Z,986.58
2018-12-08T11:29:56.530Z,986.56
2018-12-08T11:30:56.488Z,986.60
2018-12-08T11:31:56.476Z,986.64
2018-12-08T11:32:56.451Z,986.62
2018-12-08T11:33:56.440Z,986.57
2018-12-08T11:34:56.434Z,986.63
2018-12-08T11:35:56.456Z,986.69
2018-12-08T11:36:56.492Z,986.56
2018-12-08T11:37:56.402Z,986.55
2018-12-08T11:38:56.388Z,986.48
2018-12-08T11:39:56.435Z,986.62
2018-12-08T11:40:56.411Z,986.54
2018-12-08T11:41:56.382Z,986.52
2018-12-08T11:42:56.348Z,986.50
2018-12-08T11:43:56.350Z,986.54
2018-12-08T11:44:56.373Z,986.59
2018-12-08T11:45:56.309Z,986.50
2018-12-08T11:46:56.310Z,986.50
2018-12-08T11:47:56.346Z,986.62
2018-12-08T11:48:56.286Z,986.63
2018-12-08T11:49:56.268Z,986.48
2018-12-08T11:50:56.267Z,986.60
2018-12-08T11:51:56.245Z,986.66
2018-12-08T11:52:56.250Z,986.47
2018-12-08T11:53:56.278Z,986.61
2018-12-08T11:54:56.255Z,986.57
2018-12-08T11:55:56.216Z,986.57
2018-12-08T11:56:56.192Z,986.59
2018-12-08T11:57:56.186Z,986.44
2018-12-08T11:58:56.175Z,986.54
2018-12-08T11:59:56.320Z,986.48
2018-12-08T12:00:56.147Z,986.53
2018-12-08T12:01:56.135Z,986.59
2018-12-08T12:02:56.129Z,986.55
2018-12-08T12:03:56.119Z,986.62
2018-12-08T12:04:56.125Z,986.47
2018-12-08T12:05:56.138Z,986.47
2018-12-08T12:06:56.083Z,986.45
2018-12-08T12:07:56.073Z,986.49
2018-12-08T12:08:56.064Z,986.41
2018-12-08T12:09:56.049Z,986.40
2018-12-08T12:10:56.039Z,986.43
2018-12-08T12:11:56.066Z,986.47
2018-12-08T12:12:56.032Z,986.50
2018-12-08T12:13:56.009Z,986.55
2018-12-08T12:14:56.001Z,986.47
2018-12-08T12:15:55.985Z,986.56
2018-12-08T12:16:55.975Z,986.53
2018-12-08T12:17:55.994Z,986.47
2018-12-08T12:18:55.960Z,986.45
2018-12-08T12:19:55.953Z,986.32
2018-12-08T12:20:55.934Z,986.42
2018-12-08T12:21:55.935Z,986.40
2018-12-08T12:22:55.933Z,986.36
2018-12-08T12:23:55.946Z,986.45
2018-12-08T12:24:55.881Z,986.45
2018-12-08T12:25:55.895Z,986.44
2018-12-08T12:26:55.865Z,986.35
2018-12-08T12:27:55.859Z,986.43